Time;durP1;ratioP1;P1;durP2;ratioP2;P2;SDS_P1;SDS_P2;PMS_P1;PMS_P2;Temp;Humidity;BMP_temperature;BMP_pressure;BME280_temperature;BME280_humidity;BME280_pressure;Samples;Min_cycle;Max_cycle;Signal;HPM_P1;HPM_P2
2023/04/01 00:01:16;;;;;;;26.20;24.70;;;;;;;8.65;78.30;96701.53;5016611;28;20036;-76
2023/04/01 00:03:41;;;;;;;29.48;27.90;;;;;;;8.61;78.09;96703.16;5016565;28;20056;-75
2023/04/01 00:06:07;;;;;;;28.65;27.13;;;;;;;8.54;79.58;96702.63;5031932;28;20037;-76
2023/04/01 00:08:33;;;;;;;22.83;21.60;;;;;;;8.59;78.17;96699.94;5004311;28;20471;-77
2023/04/01 00:10:58;;;;;;;24.63;23.13;;;;;;;8.63;78.44;96701.00;5032839;28;20045;-76
2023/04/01 00:13:26;;;;;;;21.05;19.88;;;;;;;8.69;77.92;96699.91;5009483;28;20025;-76
2023/04/01 00:15:53;;;;;;;23.27;21.77;;;;;;;8.61;79.00;96692.44;4997970;28;20427;-76
2023/04/01 00:18:18;;;;;;;25.95;24.55;;;;;;;8.64;78.04;96684.63;5016416;28;20108;-76
2023/04/01 00:20:46;;;;;;;24.45;23.25;;;;;;;8.66;77.77;96685.16;5016497;28;20113;-75
2023/04/01 00:23:11;;;;;;;22.25;20.92;;;;;;;8.68;77.80;96682.22;4999835;28;20021;-75
2023/04/01 00:25:37;;;;;;;21.40;20.10;;;;;;;8.64;78.48;96683.81;5016266;28;20041;-75
2023/04/01 00:28:02;;;;;;;21.48;20.20;;;;;;;8.66;78.38;96689.75;5016614;28;20057;-75
2023/04/01 00:30:28;;;;;;;21.98;20.65;;;;;;;8.67;78.25;96683.28;5016252;28;20036;-76
2023/04/01 00:32:53;;;;;;;21.25;19.77;;;;;;;8.72;77.75;96688.66;4993196;28;20025;-77
2023/04/01 00:35:19;;;;;;;24.40;22.75;;;;;;;8.70;77.77;96691.63;4996780;28;20113;-77
2023/04/01 00:37:44;;;;;;;20.08;19.08;;;;;;;8.67;77.90;96680.59;5025693;28;20450;-77
2023/04/01 00:40:22;;;;;;;22.40;20.90;;;;;;;8.74;77.77;96676.59;5022594;28;20092;-77
2023/04/01 00:42:48;;;;;;;19.20;18.20;;;;;;;8.78;77.77;96682.19;5000070;28;20661;-78
2023/04/01 00:45:32;;;;;;;21.23;20.02;;;;;;;8.76;77.65;96670.94;5033080;28;20129;-77
2023/04/01 00:47:59;;;;;;;19.08;17.80;;;;;;;8.81;77.30;96681.66;5017184;28;20033;-78
2023/04/01 00:50:26;;;;;;;20.17;18.77;;;;;;;8.74;77.67;96675.78;4987382;28;20123;-78
2023/04/01 00:52:52;;;;;;;17.17;16.08;;;;;;;8.79;77.18;96681.13;5005870;28;20476;-79
2023/04/01 00:55:19;;;;;;;13.65;12.82;;;;;;;8.93;75.89;96687.56;5000850;28;20105;-78
2023/04/01 00:57:46;;;;;;;18.75;17.52;;;;;;;8.80;76.98;96682.72;5018007;28;20464;-78
2023/04/01 01:00:14;;;;;;;14.57;13.52;;;;;;;8.91;76.45;96681.66;5016471;28;20097;-79
2023/04/01 01:02:43;;;;;;;16.42;15.52;;;;;;;8.90;76.82;96680.03;5000776;28;20069;-75
2023/04/01 01:05:12;;;;;;;15.18;14.38;;;;;;;8.86;76.17;96681.66;4989224;28;20023;-76
2023/04/01 01:07:56;;;;;;;15.63;14.82;;;;;;;8.88;76.17;96674.97;4976395;28;20037;-75
2023/04/01 01:10:35;;;;;;;13.55;12.45;;;;;;;8.93;75.71;96668.78;4999058;28;20021;-76
2023/04/01 01:13:13;;;;;;;12.43;11.65;;;;;;;8.90;75.63;96675.50;5001812;28;20037;-76
2023/04/01 01:15:41;;;;;;;11.15;10.45;;;;;;;8.99;75.29;96675.72;5015412;28;20056;-77
2023/04/01 01:18:39;;;;;;;10.98;10.23;;;;;;;8.99;74.35;96673.03;5027240;28;20032;-77
2023/04/01 01:21:37;;;;;;;12.63;11.82;;;;;;;8.97;75.08;96661.78;5010644;28;20052;-76
2023/04/01 01:24:12;;;;;;;13.30;12.50;;;;;;;8.89;75.94;96683.81;5015173;28;20413;-76
2023/04/01 01:26:46;;;;;;;11.63;10.90;;;;;;;8.96;75.10;96668.25;5015284;28;20122;-77
2023/04/01 01:29:30;;;;;;;11.88;11.13;;;;;;;8.94;74.16;96656.94;5015207;28;20033;-76
2023/04/01 01:32:30;;;;;;;12.65;11.85;;;;;;;8.89;76.10;96662.34;5014969;28;20045;-76
2023/04/01 01:35:23;;;;;;;12.35;11.65;;;;;;;8.87;75.37;96659.91;4998475;28;20486;-77
2023/04/01 01:37:52;;;;;;;12.23;11.48;;;;;;;8.90;75.09;96655.88;5015228;28;20376;-77
2023/04/01 01:40:18;;;;;;;8.48;7.97;;;;;;;8.86;74.77;96646.78;4998458;28;20056;-77
2023/04/01 01:42:48;;;;;;;10.23;9.35;;;;;;;8.79;74.67;96657.78;5032771;28;20029;-77
2023/04/01 01:45:17;;;;;;;11.50;10.80;;;;;;;8.72;75.44;96651.09;4983364;28;20034;-77
2023/04/01 01:47:44;;;;;;;11.25;10.45;;;;;;;8.77;75.25;96653.78;5015976;28;20033;-77
2023/04/01 01:50:11;;;;;;;11.57;10.85;;;;;;;8.68;76.00;96652.72;4998938;28;20037;-77
2023/04/01 01:52:36;;;;;;;13.57;12.70;;;;;;;8.72;75.44;96654.59;5014586;28;20495;-77
2023/04/01 01:55:03;;;;;;;12.45;11.65;;;;;;;8.82;75.20;96667.97;5014488;28;20143;-77
2023/04/01 01:57:39;;;;;;;13.68;12.73;;;;;;;8.84;75.53;96659.66;4999624;28;20445;-77
2023/04/01 02:00:13;;;;;;;10.50;9.68;;;;;;;8.86;75.34;96662.88;4996666;28;20036;-77
2023/04/01 02:02:40;;;;;;;11.73;11.02;;;;;;;8.80;75.02;96658.56;4979241;28;20081;-77
2023/04/01 02:05:09;;;;;;;11.95;11.15;;;;;;;8.82;74.85;96661.81;4981333;28;20029;-77
2023/04/01 02:07:35;;;;;;;11.85;11.10;;;;;;;8.84;75.68;96648.94;4998228;28;20124;-77
2023/04/01 02:10:01;;;;;;;10.73;9.90;;;;;;;8.85;75.12;96656.69;4997769;28;20512;-77
2023/04/01 02:12:27;;;;;;;12.07;11.35;;;;;;;8.81;75.45;96661.00;5014602;28;20029;-77
2023/04/01 02:14:55;;;;;;;12.20;11.25;;;;;;;8.80;76.12;96647.84;4981862;28;20048;-76
2023/04/01 02:17:27;;;;;;;11.55;10.73;;;;;;;8.84;74.97;96649.75;5014280;28;20037;-77
2023/04/01 02:19:59;;;;;;;9.80;9.20;;;;;;;8.85;74.95;96647.84;5014153;28;20121;-77
2023/04/01 02:22:33;;;;;;;11.30;10.40;;;;;;;8.83;75.15;96650.00;4997846;28;20033;-77
2023/04/01 02:25:08;;;;;;;14.55;13.50;;;;;;;8.79;75.55;96647.06;5014006;28;20083;-77
2023/04/01 02:27:34;;;;;;;10.82;10.10;;;;;;;8.84;74.46;96643.56;4980874;28;20030;-77
2023/04/01 02:29:59;;;;;;;10.60;9.95;;;;;;;8.74;75.18;96643.56;5004379;28;20029;-77
2023/04/01 02:32:27;;;;;;;13.40;12.45;;;;;;;8.70;75.38;96653.25;5029442;28;20041;-77
2023/04/01 02:34:53;;;;;;;10.73;9.98;;;;;;;8.78;74.72;96660.72;5013903;28;20167;-77
2023/04/01 02:37:18;;;;;;;12.35;11.45;;;;;;;8.69;75.02;96632.84;5030558;28;20108;-77
2023/04/01 02:39:44;;;;;;;12.32;11.60;;;;;;;8.73;75.37;96636.56;4997573;28;20476;-76
2023/04/01 02:42:10;;;;;;;11.45;10.80;;;;;;;8.69;74.66;96647.06;5013920;28;20044;-77
2023/04/01 02:44:35;;;;;;;10.80;9.90;;;;;;;8.71;74.67;96644.09;5013764;28;20022;-77
2023/04/01 02:47:01;;;;;;;9.65;9.05;;;;;;;8.71;74.39;96644.09;5030834;28;20037;-77
2023/04/01 02:49:26;;;;;;;9.35;8.52;;;;;;;8.71;74.35;96650.28;5031618;28;20028;-77
2023/04/01 02:51:51;;;;;;;12.40;11.20;;;;;;;8.61;75.22;96646.81;5018996;28;20065;-78
2023/04/01 02:54:18;;;;;;;11.77;10.88;;;;;;;8.67;75.08;96667.19;4982963;28;20021;-77
2023/04/01 02:56:44;;;;;;;10.55;9.80;;;;;;;8.72;74.63;96656.47;5015395;28;20076;-77
2023/04/01 02:59:09;;;;;;;10.52;9.93;;;;;;;8.68;74.25;96668.81;4982883;28;20025;-77
2023/04/01 03:01:34;;;;;;;11.02;10.13;;;;;;;8.70;74.59;96661.28;5001279;28;20446;-77
2023/04/01 03:04:00;;;;;;;10.60;9.63;;;;;;;8.66;74.32;96660.22;4999176;28;20043;-78
2023/04/01 03:06:25;;;;;;;10.35;9.68;;;;;;;8.60;74.78;96654.03;5007015;28;20070;-76
2023/04/01 03:08:51;;;;;;;12.25;11.55;;;;;;;8.57;74.91;96654.56;4989105;28;20059;-78
2023/04/01 03:11:16;;;;;;;12.32;11.52;;;;;;;8.59;75.33;96657.00;5015422;28;20061;-79
2023/04/01 03:13:41;;;;;;;11.55;10.65;;;;;;;8.60;74.69;96658.59;4982392;28;20501;-77
2023/04/01 03:16:07;;;;;;;11.20;10.48;;;;;;;8.58;74.59;96650.84;4983373;28;20041;-78
2023/04/01 03:18:34;;;;;;;10.23;9.50;;;;;;;8.64;74.20;96659.66;4983774;28;20391;-77
2023/04/01 03:21:20;;;;;;;11.20;10.40;;;;;;;8.70;74.94;96663.97;5017082;28;20048;-77
2023/04/01 03:23:46;;;;;;;12.05;11.15;;;;;;;8.63;75.03;96663.44;4997232;28;20399;-76
2023/04/01 03:26:11;;;;;;;12.35;11.27;;;;;;;8.65;74.84;96666.66;4976224;28;20045;-77
2023/04/01 03:28:37;;;;;;;11.60;10.85;;;;;;;8.65;74.47;96664.78;4973689;28;20052;-77
2023/04/01 03:31:02;;;;;;;11.43;10.63;;;;;;;8.65;74.39;96661.28;4997106;28;20060;-76
2023/04/01 03:33:32;;;;;;;9.80;9.20;;;;;;;8.68;73.84;96660.75;5013902;28;20037;-76
2023/04/01 03:35:58;;;;;;;12.70;11.57;;;;;;;8.66;75.07;96671.75;4997195;28;20025;-75
2023/04/01 03:38:24;;;;;;;11.68;10.77;;;;;;;8.63;75.36;96669.63;5013386;28;20480;-75
2023/04/01 03:40:49;;;;;;;11.55;10.60;;;;;;;8.61;75.12;96676.31;5000274;28;20124;-75
2023/04/01 03:43:16;;;;;;;11.60;10.77;;;;;;;8.64;74.77;96675.75;5029621;28;20099;-76
2023/04/01 03:45:46;;;;;;;10.32;9.55;;;;;;;8.71;74.58;96662.88;4978714;28;20033;-75
2023/04/01 03:48:13;;;;;;;11.05;10.35;;;;;;;8.70;74.76;96672.03;4997565;28;20036;-75
2023/04/01 03:50:39;;;;;;;10.35;9.52;;;;;;;8.69;73.69;96683.81;4997212;28;20030;-76
2023/04/01 03:53:04;;;;;;;10.88;10.00;;;;;;;8.69;74.70;96678.44;5010629;28;20399;-76
2023/04/01 03:55:30;;;;;;;11.15;10.35;;;;;;;8.64;74.38;96675.75;4997397;28;20557;-76
2023/04/01 03:57:55;;;;;;;11.48;10.52;;;;;;;8.67;73.97;96676.06;4994161;28;20038;-76
2023/04/01 04:00:20;;;;;;;12.00;11.25;;;;;;;8.66;74.60;96684.38;5020041;28;20076;-76
2023/04/01 04:02:52;;;;;;;10.30;9.38;;;;;;;8.69;73.89;96683.81;5032948;28;20517;-75
2023/04/01 04:05:24;;;;;;;12.68;11.85;;;;;;;8.58;75.45;96692.94;5016669;28;20502;-74
2023/04/01 04:07:50;;;;;;;12.65;11.95;;;;;;;8.62;75.07;96677.91;5017897;28;20061;-75
2023/04/01 04:10:15;;;;;;;11.80;11.10;;;;;;;8.58;75.21;96684.91;4997509;28;20076;-76
2023/04/01 04:12:41;;;;;;;14.13;13.05;;;;;;;8.63;74.58;96674.19;4996412;28;20040;-76
2023/04/01 04:15:07;;;;;;;10.73;9.95;;;;;;;8.66;74.52;96689.75;5032740;28;20517;-76
2023/04/01 04:17:33;;;;;;;11.23;10.43;;;;;;;8.60;74.88;96682.75;5000055;28;20071;-76
2023/04/01 04:19:59;;;;;;;10.70;9.98;;;;;;;8.65;74.59;96682.75;4983770;28;20025;-77
2023/04/01 04:22:24;;;;;;;13.77;12.88;;;;;;;8.64;75.36;96697.22;5034241;28;20060;-77
2023/04/01 04:24:50;;;;;;;14.43;13.43;;;;;;;8.52;75.54;96691.34;5006274;28;20025;-77
2023/04/01 04:27:16;;;;;;;11.82;11.13;;;;;;;8.59;74.50;96686.53;4974580;28;20125;-77
2023/04/01 04:29:54;;;;;;;12.25;11.25;;;;;;;8.63;75.37;96692.97;5025233;28;20076;-77
2023/04/01 04:32:19;;;;;;;10.73;10.02;;;;;;;8.60;74.25;96688.13;5023586;28;20364;-77
2023/04/01 04:34:45;;;;;;;13.57;12.27;;;;;;;8.64;75.37;96691.88;4975956;28;20026;-77
2023/04/01 04:37:10;;;;;;;10.00;9.23;;;;;;;8.65;73.47;96688.13;5030922;28;20372;-78
2023/04/01 04:39:36;;;;;;;9.95;9.15;;;;;;;8.62;73.95;96694.84;5007132;28;20041;-77
2023/04/01 04:42:02;;;;;;;11.30;10.50;;;;;;;8.65;74.76;96688.94;5008355;28;20041;-78
2023/04/01 04:44:28;;;;;;;11.65;10.65;;;;;;;8.69;73.94;96699.91;5008247;28;20021;-76
2023/04/01 04:46:53;;;;;;;11.48;10.57;;;;;;;8.62;74.57;96699.38;5012094;28;20042;-77
2023/04/01 04:49:19;;;;;;;12.35;11.60;;;;;;;8.64;75.19;96698.03;5024337;28;20026;-76
2023/04/01 04:51:44;;;;;;;13.85;12.77;;;;;;;8.64;75.24;96699.91;5003161;28;20526;-77
2023/04/01 04:54:12;;;;;;;10.38;9.48;;;;;;;8.70;74.03;96701.53;5023556;28;20049;-77
2023/04/01 04:56:47;;;;;;;10.23;9.43;;;;;;;8.65;74.07;96698.84;4997926;28;20076;-78
2023/04/01 04:59:12;;;;;;;12.27;11.55;;;;;;;8.58;75.14;96698.31;5021737;28;20038;-77
2023/04/01 05:01:44;;;;;;;15.35;14.30;;;;;;;8.57;74.86;96702.88;4993944;28;20084;-77
2023/04/01 05:04:10;;;;;;;13.38;12.25;;;;;;;8.58;75.92;96692.94;5007258;28;20029;-77
2023/04/01 05:06:35;;;;;;;14.45;13.63;;;;;;;8.45;74.93;96685.44;4986452;28;20475;-77
2023/04/01 05:09:01;;;;;;;15.50;14.50;;;;;;;8.57;75.61;96696.69;4987766;28;20398;-77
2023/04/01 05:11:27;;;;;;;13.00;12.10;;;;;;;8.55;75.10;96696.97;5018915;28;20025;-77
2023/04/01 05:13:53;;;;;;;15.70;14.65;;;;;;;8.57;74.92;96697.50;5005280;28;20030;-77
2023/04/01 05:16:20;;;;;;;21.55;19.98;;;;;;;8.64;74.73;96702.59;5017138;28;20021;-77
2023/04/01 05:18:46;;;;;;;21.05;19.15;;;;;;;8.68;74.06;96703.69;5005472;28;20494;-77
2023/04/01 05:21:14;;;;;;;64.50;58.33;;;;;;;8.67;74.10;96702.06;4996983;28;20088;-78
2023/04/01 05:23:40;;;;;;;46.38;41.63;;;;;;;8.66;74.60;96711.22;5004956;28;20038;-77
2023/04/01 05:26:10;;;;;;;25.33;22.98;;;;;;;8.63;74.61;96706.38;4997085;28;20407;-77
2023/04/01 05:28:36;;;;;;;19.73;18.33;;;;;;;8.67;73.81;96708.25;4992852;28;20032;-77
2023/04/01 05:31:02;;;;;;;67.95;61.03;;;;;;;8.72;74.03;96705.56;5012104;28;20021;-77
2023/04/01 05:33:34;;;;;;;91.30;82.32;;;;;;;8.67;74.48;96712.81;4986657;28;20065;-76
2023/04/01 05:36:14;;;;;;;30.08;27.98;;;;;;;8.63;74.05;96706.38;5016374;28;20025;-77
2023/04/01 05:38:40;;;;;;;24.77;23.10;;;;;;;8.69;73.89;96705.28;4987304;28;20034;-80
2023/04/01 05:41:08;;;;;;;12.82;11.90;;;;;;;8.65;73.98;96698.84;4992248;28;20022;-78
2023/04/01 05:43:38;;;;;;;12.82;12.02;;;;;;;8.73;74.44;96709.03;5009763;28;20573;-77
2023/04/01 05:46:23;;;;;;;11.30;10.48;;;;;;;8.62;74.42;96700.19;5011754;28;20049;-78
2023/04/01 05:48:55;;;;;;;11.85;11.23;;;;;;;8.66;74.42;96697.81;4972115;28;20025;-77
2023/04/01 05:51:22;;;;;;;13.30;12.25;;;;;;;8.66;74.50;96711.22;5004244;28;20050;-78
2023/04/01 05:53:48;;;;;;;13.43;12.73;;;;;;;8.66;74.22;96705.84;5010321;28;20033;-77
2023/04/01 05:56:14;;;;;;;13.38;12.65;;;;;;;8.69;74.49;96699.91;4995890;28;20443;-77
2023/04/01 05:58:47;;;;;;;12.07;11.27;;;;;;;8.66;74.80;96705.84;4993131;28;20105;-77
2023/04/01 06:01:13;;;;;;;12.77;11.98;;;;;;;8.63;75.20;96709.06;4996349;28;20042;-77
2023/04/01 06:03:38;;;;;;;15.65;14.75;;;;;;;8.67;74.79;96713.63;5008270;28;20113;-77
2023/04/01 06:06:04;;;;;;;17.02;16.02;;;;;;;8.58;75.12;96699.13;5025594;28;20112;-76
2023/04/01 06:08:30;;;;;;;17.95;16.85;;;;;;;8.81;75.46;96724.63;5002248;28;20017;-77
2023/04/01 06:10:59;;;;;;;17.20;16.20;;;;;;;8.75;75.46;96714.97;4982592;28;20041;-77
2023/04/01 06:13:53;;;;;;;17.25;16.17;;;;;;;8.57;75.39;96712.78;5008194;28;20029;-77
2023/04/01 06:16:56;;;;;;;14.90;14.02;;;;;;;8.77;74.39;96710.94;4995118;28;20029;-74
2023/04/01 06:19:31;;;;;;;18.25;17.30;;;;;;;8.82;75.23;96710.13;4994710;28;20487;-76
2023/04/01 06:22:15;;;;;;;18.70;17.45;;;;;;;8.79;75.39;96710.66;5004612;28;20037;-77
2023/04/01 06:25:12;;;;;;;20.50;18.88;;;;;;;8.74;75.15;96710.66;4973570;28;20168;-77
2023/04/01 06:28:15;;;;;;;22.58;21.08;;;;;;;8.75;74.80;96712.28;4985860;28;20034;-77
2023/04/01 06:30:46;;;;;;;27.38;25.70;;;;;;;8.81;76.58;96716.56;5001868;28;20073;-77
2023/04/01 06:33:49;;;;;;;26.55;24.75;;;;;;;8.79;76.20;96710.66;4988969;28;20041;-77
2023/04/01 06:36:25;;;;;;;24.40;22.90;;;;;;;8.64;76.50;96718.69;5003258;28;20026;-78
2023/04/01 06:39:09;;;;;;;23.23;22.05;;;;;;;8.69;75.92;96716.03;4985363;28;20041;-77
2023/04/01 06:41:57;;;;;;;20.65;19.65;;;;;;;8.74;75.91;96718.72;4987180;28;20076;-77
2023/04/01 06:44:34;;;;;;;25.23;23.75;;;;;;;8.66;76.97;96713.91;4992747;28;20044;-76
2023/04/01 06:47:30;;;;;;;27.15;25.73;;;;;;;8.77;76.47;96710.13;5019730;28;20064;-77
2023/04/01 06:50:46;;;;;;;25.42;24.13;;;;;;;8.73;76.59;96717.09;5002377;28;20040;-78
2023/04/01 06:53:55;;;;;;;29.50;28.17;;;;;;;8.83;77.88;96712.53;5001142;28;20129;-78
2023/04/01 06:56:42;;;;;;;33.08;31.63;;;;;;;8.73;78.19;96714.41;5012017;28;20044;-77
2023/04/01 06:59:22;;;;;;;35.25;33.53;;;;;;;8.80;77.91;96709.56;5006082;28;20029;-77
2023/04/01 07:02:07;;;;;;;31.27;29.88;;;;;;;8.52;77.98;96699.41;4999152;28;20037;-77
2023/04/01 07:04:38;;;;;;;29.65;28.35;;;;;;;8.72;77.00;96715.50;4985688;28;20038;-78
2023/04/01 07:07:15;;;;;;;24.38;23.27;;;;;;;8.63;75.60;96717.09;5013719;28;20033;-76
2023/04/01 07:09:54;;;;;;;18.90;18.00;;;;;;;8.64;76.02;96721.38;5001995;28;20033;-78
2023/04/01 07:12:31;;;;;;;28.05;26.70;;;;;;;8.86;76.60;96716.56;5004462;28;20038;-77
2023/04/01 07:15:35;;;;;;;26.65;25.25;;;;;;;8.92;76.67;96716.28;4990973;28;20079;-76
2023/04/01 07:18:09;;;;;;;34.83;33.13;;;;;;;8.86;77.99;96719.25;4985693;28;20034;-76
2023/04/01 07:20:38;;;;;;;43.05;41.00;;;;;;;8.70;79.12;96718.47;4969401;28;20400;-76
2023/04/01 07:23:13;;;;;;;41.08;39.08;;;;;;;8.88;78.34;96725.97;4994761;28;20026;-76
2023/04/01 07:25:55;;;;;;;40.38;38.50;;;;;;;8.70;79.12;96723.00;4996765;28;20026;-76
2023/04/01 07:28:30;;;;;;;42.45;40.55;;;;;;;8.68;79.44;96725.16;5010356;28;20037;-76
2023/04/01 07:31:22;;;;;;;49.40;47.22;;;;;;;8.76;79.78;96717.38;5005550;28;20044;-78
2023/04/01 07:33:56;;;;;;;41.45;39.65;;;;;;;8.80;79.02;96723.81;5004275;28;20541;-78
2023/04/01 07:36:41;;;;;;;46.58;44.50;;;;;;;8.72;80.28;96705.56;5009406;28;20037;-78
2023/04/01 07:39:16;;;;;;;40.30;38.50;;;;;;;8.78;78.45;96719.78;5006789;28;20079;-78
2023/04/01 07:42:21;;;;;;;35.42;33.83;;;;;;;8.65;78.09;96720.31;5008914;28;20034;-78
2023/04/01 07:44:58;;;;;;;38.40;36.50;;;;;;;8.81;79.09;96719.25;5008232;28;20033;-78
2023/04/01 07:47:42;;;;;;;42.25;40.35;;;;;;;8.76;80.39;96732.66;5012939;28;20034;-78
2023/04/01 07:50:17;;;;;;;44.40;42.38;;;;;;;8.91;79.86;96727.31;5027862;28;20029;-77
2023/04/01 07:53:01;;;;;;;48.05;45.85;;;;;;;9.04;79.82;96732.13;5007342;28;20116;-77
2023/04/01 07:55:51;;;;;;;47.10;45.03;;;;;;;8.93;79.67;96734.03;5003938;28;20532;-77
2023/04/01 07:58:38;;;;;;;49.30;47.10;;;;;;;8.81;81.66;96735.34;5002612;28;20092;-77
2023/04/01 08:01:20;;;;;;;52.63;50.13;;;;;;;8.86;81.90;96727.31;5011020;28;20116;-77
2023/04/01 08:04:23;;;;;;;54.55;52.05;;;;;;;8.77;81.92;96740.47;4977988;28;20094;-77
2023/04/01 08:07:11;;;;;;;50.50;48.10;;;;;;;8.83;81.67;96735.88;5021946;28;20037;-77
2023/04/01 08:10:11;;;;;;;52.67;50.15;;;;;;;9.05;80.57;96736.44;4988623;28;20112;-77
2023/04/01 08:13:21;;;;;;;53.85;51.05;;;;;;;8.79;81.45;96732.13;5003768;28;20135;-77
2023/04/01 08:16:17;;;;;;;56.28;53.15;;;;;;;8.98;81.24;96741.25;5013362;28;20071;-77
2023/04/01 08:19:27;;;;;;;54.15;51.50;;;;;;;8.99;82.47;96737.50;5009308;28;20446;-77
2023/04/01 08:21:58;;;;;;;57.45;54.20;;;;;;;8.95;82.42;96747.16;4969217;28;20047;-77
2023/04/01 08:24:29;;;;;;;57.75;54.85;;;;;;;8.77;81.84;96739.66;4987586;28;20060;-77
2023/04/01 08:26:58;;;;;;;55.60;52.97;;;;;;;8.89;82.27;96737.50;5005742;28;20491;-77
2023/04/01 08:29:42;;;;;;;55.88;52.97;;;;;;;8.93;82.30;96736.72;5010569;28;20045;-77
2023/04/01 08:32:11;;;;;;;55.90;53.30;;;;;;;9.01;82.62;96740.69;5009736;28;20522;-77
2023/04/01 08:34:39;;;;;;;57.92;55.22;;;;;;;9.21;82.64;96740.69;5005443;28;20029;-77
2023/04/01 08:37:21;;;;;;;52.22;49.70;;;;;;;8.80;82.29;96745.28;5003987;28;20040;-77
2023/04/01 08:39:55;;;;;;;51.53;49.20;;;;;;;9.09;82.67;96748.22;5006381;28;20260;-76
2023/04/01 08:42:43;;;;;;;58.00;55.40;;;;;;;9.10;83.63;96744.47;4994560;28;20045;-77
2023/04/01 08:45:27;;;;;;;53.45;51.17;;;;;;;9.28;81.97;96735.84;4994470;28;20120;-77
2023/04/01 08:48:11;;;;;;;54.85;52.45;;;;;;;9.12;82.06;96742.31;5008586;28;20107;-77
2023/04/01 08:51:08;;;;;;;53.55;51.25;;;;;;;8.93;82.95;96743.94;4991046;28;20091;-78
2023/04/01 08:54:08;;;;;;;54.45;51.85;;;;;;;9.25;82.51;96736.38;5003473;28;20037;-76
2023/04/01 08:56:41;;;;;;;56.55;53.80;;;;;;;9.20;83.12;96733.69;4987629;28;20038;-77
2023/04/01 08:59:32;;;;;;;55.75;53.15;;;;;;;9.30;81.79;96741.75;5006074;28;20443;-78
2023/04/01 09:02:27;;;;;;;50.78;48.38;;;;;;;9.40;81.47;96739.06;5005514;28;20046;-77
2023/04/01 09:05:04;;;;;;;53.72;51.22;;;;;;;9.29;82.79;96740.13;5004068;28;20025;-77
2023/04/01 09:07:57;;;;;;;52.25;49.95;;;;;;;9.33;82.34;96738.53;5004450;28;20129;-78
2023/04/01 09:10:40;;;;;;;52.35;50.00;;;;;;;9.47;81.31;96742.25;4995960;28;20511;-77
2023/04/01 09:13:45;;;;;;;51.10;48.80;;;;;;;9.46;82.44;96740.63;4994392;28;20095;-77
2023/04/01 09:16:20;;;;;;;52.50;50.30;;;;;;;9.40;80.99;96739.06;5000202;28;20034;-76
2023/04/01 09:18:56;;;;;;;49.83;47.63;;;;;;;9.26;81.49;96738.00;5008157;28;20470;-78
2023/04/01 09:21:22;;;;;;;;;;;;;;;9.49;81.87;96748.16;5003981;28;20092;-77
2023/04/01 09:24:07;;;;;;;49.57;47.30;;;;;;;9.54;81.25;96750.84;5004171;28;19913;-77
2023/04/01 09:27:13;;;;;;;52.85;50.47;;;;;;;9.35;82.11;96752.50;4977514;28;20039;-77
2023/04/01 09:30:18;;;;;;;48.95;46.85;;;;;;;9.30;80.99;96752.50;4991424;28;20041;-76
2023/04/01 09:33:12;;;;;;;46.55;44.63;;;;;;;9.01;81.17;96746.06;5003260;28;20037;-77
2023/04/01 09:35:55;;;;;;;50.35;48.33;;;;;;;9.18;81.50;96754.66;5003230;28;20442;-76
2023/04/01 09:38:22;;;;;;;44.72;42.92;;;;;;;9.10;80.23;96749.84;4988667;28;20503;-77
2023/04/01 09:40:58;;;;;;;41.63;39.85;;;;;;;9.26;79.70;96743.38;5009618;28;20022;-77
2023/04/01 09:44:01;;;;;;;42.80;41.00;;;;;;;9.46;78.91;96743.31;4981750;28;20201;-77
2023/04/01 09:46:27;;;;;;;42.67;40.88;;;;;;;9.35;79.66;96747.13;4998579;28;20033;-76
2023/04/01 09:49:17;;;;;;;44.83;42.92;;;;;;;9.36;80.24;96754.09;5005700;28;20026;-77
2023/04/01 09:51:42;;;;;;;40.45;38.65;;;;;;;9.14;80.29;96750.91;5009635;28;20038;-76
2023/04/01 09:54:23;;;;;;;43.42;41.42;;;;;;;9.22;80.71;96747.66;5020304;28;20026;-77
2023/04/01 09:57:07;;;;;;;45.78;43.97;;;;;;;9.31;79.64;96756.78;4999688;28;20408;-78
2023/04/01 10:00:12;;;;;;;35.67;34.17;;;;;;;9.18;79.23;96746.59;5003429;28;20045;-77
2023/04/01 10:03:10;;;;;;;38.45;36.80;;;;;;;9.18;78.84;96753.84;4993821;28;20029;-78
2023/04/01 10:06:03;;;;;;;42.45;40.65;;;;;;;9.38;78.55;96757.31;4986119;28;20030;-77
2023/04/01 10:08:51;;;;;;;43.50;41.72;;;;;;;9.32;79.93;96763.78;4989828;28;20475;-76
2023/04/01 10:11:44;;;;;;;38.22;36.55;;;;;;;8.99;77.92;96748.22;4986617;28;20029;-77
2023/04/01 10:14:24;;;;;;;35.83;34.42;;;;;;;8.94;78.58;96756.28;5002042;28;20480;-77
2023/04/01 10:17:11;;;;;;;34.40;33.00;;;;;;;9.11;78.52;96759.50;5006561;28;20037;-77
2023/04/01 10:20:06;;;;;;;33.67;32.28;;;;;;;9.02;78.43;96763.81;5025642;28;20049;-77
2023/04/01 10:23:01;;;;;;;29.33;28.13;;;;;;;8.98;78.43;96760.06;5009113;28;20430;-77
2023/04/01 10:26:07;;;;;;;37.63;36.13;;;;;;;9.01;80.02;96762.19;5007884;28;20550;-77
2023/04/01 10:28:47;;;;;;;43.03;41.33;;;;;;;8.95;80.78;96755.22;4987251;28;20496;-77
2023/04/01 10:31:59;;;;;;;48.42;46.53;;;;;;;9.24;81.61;96750.88;5006908;28;20079;-77
2023/04/01 10:34:55;;;;;;;50.03;47.83;;;;;;;9.20;81.97;96749.81;5001483;28;20029;-77
2023/04/01 10:37:32;;;;;;;53.40;51.10;;;;;;;9.14;82.67;96753.59;5001562;28;20053;-77
2023/04/01 10:40:26;;;;;;;53.80;51.60;;;;;;;9.17;82.70;96744.97;5002686;28;20065;-77
2023/04/01 10:43:45;;;;;;;55.97;53.58;;;;;;;8.98;82.84;96760.06;5005196;28;20048;-77
2023/04/01 10:46:41;;;;;;;54.65;52.45;;;;;;;9.24;82.08;96745.50;4995287;28;20029;-77
2023/04/01 10:49:15;;;;;;;54.05;51.75;;;;;;;9.23;84.26;96748.47;5006749;28;20030;-77
2023/04/01 10:52:20;;;;;;;62.83;59.67;;;;;;;9.26;85.03;96747.94;5024894;28;20535;-77
2023/04/01 10:55:26;;;;;;;57.03;54.28;;;;;;;9.09;84.78;96750.91;4994937;28;20466;-77
2023/04/01 10:58:59;;;;;;;60.55;57.53;;;;;;;9.04;85.21;96740.97;4994891;28;20072;-77
2023/04/01 11:01:46;;;;;;;73.13;67.93;;;;;;;9.46;84.26;96748.69;5004769;28;20049;-77
2023/04/01 11:04:49;;;;;;;60.30;57.67;;;;;;;9.45;83.73;96747.06;5013201;28;20133;-77
2023/04/01 11:08:27;;;;;;;56.45;54.03;;;;;;;9.36;84.55;96743.34;5004795;28;20041;-77
2023/04/01 11:11:11;;;;;;;56.28;53.83;;;;;;;9.62;84.00;96746.78;4985051;28;20113;-77
2023/04/01 11:13:46;;;;;;;58.30;55.60;;;;;;;9.61;83.81;96737.91;4988950;28;20076;-76
2023/04/01 11:16:41;;;;;;;56.42;53.92;;;;;;;9.31;82.96;96746.03;5007791;28;20507;-77
2023/04/01 11:19:20;;;;;;;56.58;54.28;;;;;;;9.41;83.25;96743.34;4955653;28;20461;-77
2023/04/01 11:22:19;;;;;;;55.75;53.42;;;;;;;9.58;84.19;96735.78;5005332;28;20484;-77
2023/04/01 11:24:59;;;;;;;60.38;57.58;;;;;;;9.39;84.03;96740.13;4990691;28;20041;-78
2023/04/01 11:28:06;;;;;;;56.80;54.40;;;;;;;9.59;82.86;96748.13;5018433;28;20072;-77
2023/04/01 11:30:59;;;;;;;55.83;53.53;;;;;;;9.32;84.39;96744.97;4985533;28;20144;-77
2023/04/01 11:33:44;;;;;;;54.33;52.03;;;;;;;9.56;83.63;96746.00;5002931;28;20038;-76
2023/04/01 11:36:24;;;;;;;54.28;52.05;;;;;;;9.23;83.89;96743.91;4990633;28;20041;-77
2023/04/01 11:38:56;;;;;;;49.80;47.80;;;;;;;9.34;83.42;96742.00;5001088;28;20064;-78
2023/04/01 11:41:46;;;;;;;52.15;49.85;;;;;;;9.31;83.99;96740.66;5018437;28;20471;-76
2023/04/01 11:44:57;;;;;;;53.03;50.92;;;;;;;9.10;83.38;96733.75;4967646;28;20552;-77
2023/04/01 11:47:44;;;;;;;53.72;51.53;;;;;;;9.55;84.72;96741.69;4973997;28;20097;-77
2023/04/01 11:50:40;;;;;;;52.90;50.60;;;;;;;9.26;85.14;96745.25;4985110;28;20528;-77
2023/04/01 11:53:11;;;;;;;53.95;51.55;;;;;;;9.39;84.06;96742.81;5017465;28;20029;-77
2023/04/01 11:56:06;;;;;;;55.55;53.15;;;;;;;9.29;85.64;96748.19;5018134;28;20037;-76
2023/04/01 11:58:46;;;;;;;53.95;51.65;;;;;;;9.49;84.63;96750.84;5001140;28;20037;-77
2023/04/01 12:01:20;;;;;;;53.60;51.30;;;;;;;9.49;85.42;96750.84;5014432;28;20037;-77
2023/04/01 12:03:59;;;;;;;53.20;51.00;;;;;;;9.35;86.70;96752.50;5001759;28;20060;-77
2023/04/01 12:06:56;;;;;;;52.60;50.40;;;;;;;9.14;86.52;96756.28;4986184;28;20045;-77
2023/04/01 12:09:52;;;;;;;53.17;50.88;;;;;;;9.31;86.44;96750.63;5002707;28;20030;-77
2023/04/01 12:12:42;;;;;;;52.20;49.80;;;;;;;9.34;87.03;96756.25;5005012;28;20041;-77
2023/04/01 12:15:37;;;;;;;51.85;49.65;;;;;;;9.38;86.33;96751.94;4987019;28;20415;-77